• Join FlightAware (Why Join?)
  • Login
  • US Flag 
03:28PM EDT


 

Airport Tracker/Info


-or-


 

Live Flight TrackerFlight Track Log ✈ AVN51 ✈ 19-Feb-2014 ✈ NZAA / AKL - NVVV / VLI

Flight Track Log - Related Links

Times and Time Zones

All times are in EST time to prevent confusion due to time zone crossing. See the AVN51 flight status page for this flight to view local times or setup timezone preferences in your user account.

Time Position Orientation Groundspeed Altitude Reporting Facility
EST Latitude Longitude Course Direction KTS MPH feet Rate Location/Type
07:06PM -37.0000 174.8167 342° North 115 132  Level New Zealand
07:07PM -36.9133 174.7527 342° North  Level Estimated
07:07PM -36.9833 174.8667 67° East 179 206  Level New Zealand
07:08PM -36.9667 174.9333 73° East 203 234 2,340 Level New Zealand
07:09PM -36.9167 174.9833 39° Northeast 261 300 3,300 Level New Zealand
07:10PM -36.8333 174.9500 342° North 333 383 5,760 Level New Zealand
07:10PM -36.7991 174.9317 342° North 350 403 8,100 13,200 Climbing FlightAware ADS-B (NZNE)
07:11PM -36.7714 174.9164 336° Northwest 354 407 8,800 2,100 Climbing FlightAware ADS-B (NZNE)
07:11PM -36.7430 174.9007 336° Northwest 361 415 9,500 2,040 Climbing FlightAware ADS-B (NZNE)
07:12PM -36.6939 174.8736 336° Northwest 372 428 10,600 2,340 Climbing FlightAware ADS-B (NZNE)
07:12PM -36.6500 174.8500 336° Northwest 374 430 2,520 Descending New Zealand
07:12PM -36.6292 174.8382 336° Northwest 378 435 12,300 20,220 Climbing FlightAware ADS-B (NZNE)
07:13PM -36.5799 174.8113 336° Northwest 385 443 13,500 2,520 Climbing FlightAware ADS-B (NZNE)
07:13PM -36.5160 174.7764 336° Northwest 391 450 15,200 2,640 Climbing FlightAware ADS-B (NZNE)
07:14PM -36.4646 174.7485 336° Northwest 393 452 16,600 2,580 Climbing FlightAware ADS-B (NZNE)
07:14PM -36.4011 174.7138 336° Northwest 399 459 18,200 2,280 Climbing FlightAware ADS-B (NZNE)
07:15PM -36.3478 174.6851 337° Northwest 404 465 19,300 1,980 Climbing FlightAware ADS-B (NZNE)
07:16PM -36.2777 174.6473 336° Northwest 413 475 20,600 1,860 Climbing FlightAware ADS-B (NZNE)
07:16PM -36.2257 174.6190 336° Northwest 420 483 21,500 1,800 Climbing FlightAware ADS-B (NZNE)
07:17PM -36.1570 174.5819 336° Northwest 427 491 22,700 1,740 Climbing FlightAware ADS-B (NZNE)
07:17PM -36.0844 174.5428 336° Northwest 432 497 23,800 1,560 Climbing FlightAware ADS-B (NZNE)
07:18PM -36.0237 174.5101 336° Northwest 438 504 24,600 1,500 Climbing FlightAware ADS-B (NZNE)
07:19PM -35.8833 174.4333 336° Northwest 447 514 -21,120 Descending New Zealand
07:20PM -35.7667 174.3667 335° Northwest 455 524  Level New Zealand
07:21PM -35.6500 174.3000 335° Northwest 462 532  Level New Zealand
07:22PM -35.5333 174.2500 341° North 468 539  Level New Zealand
07:23PM -35.4167 174.1833 335° Northwest 465 535  Level New Zealand
07:24PM -35.2833 174.1167 338° Northwest 457 526  Level New Zealand
07:25PM -35.1667 174.0500 335° Northwest 452 520  Level New Zealand
07:26PM -35.0500 174.0000 341° North 446 513  Level New Zealand
07:27PM -34.9333 173.9333 335° Northwest 445 512  Level New Zealand
07:28PM -34.8167 173.8667 335° Northwest 451 519  Level New Zealand
07:29PM -34.7000 173.8167 341° North 457 526  Level New Zealand
07:30PM -34.5833 173.7500 335° Northwest 466 536  Level New Zealand
07:31PM -34.4500 173.6833 338° Northwest 467 537  Level New Zealand
07:33PM -34.3333 173.6167 335° Northwest 475 547  Level New Zealand
07:34PM -34.2000 173.5500 338° Northwest 476 548  Level New Zealand
07:35PM -34.0833 173.4833 335° Northwest 482 555  Level New Zealand
07:36PM -33.9500 173.4167 337° Northwest 482 555  Level New Zealand
07:37PM -33.8667 173.3833 342° North 477 549  Level New Zealand
07:38PM -33.7000 173.3167 342° North 481 554  Level New Zealand
07:39PM -33.6000 173.2833 344° North 491 565  Level New Zealand
07:40PM -33.4333 173.2167 342° North 478 550  Level New Zealand
07:41PM -33.3500 173.1833 342° North 491 565  Level New Zealand
07:42PM -33.1667 173.1167 343° North 478 550  Level New Zealand
07:43PM -33.0833 173.1000 350° North 491 565  Level New Zealand
07:44PM -32.9167 173.0333 341° North 481 554  Level New Zealand
07:45PM -32.8167 173.0000 344° North 491 565  Level New Zealand
07:47PM -32.5500 172.9000 342° North 491 565  Level New Zealand
07:49PM -32.3000 172.8167 344° North 491 565  Level New Zealand
07:51PM -32.0333 172.7167 342° North 491 565  Level New Zealand
07:53PM -31.7667 172.6333 345° North 491 565  Level New Zealand
07:55PM -31.5167 172.5333 341° North 491 565  Level New Zealand
07:57PM -31.2500 172.4333 342° North 491 565  Level New Zealand
07:59PM -30.9833 172.3500 345° North 491 565  Level New Zealand
08:01PM -30.7167 172.2500 342° North 491 565  Level New Zealand
08:03PM -30.4500 172.1667 345° North 491 565  Level New Zealand
08:05PM -30.1833 172.0667 342° North 491 565  Level New Zealand
08:07PM -29.9333 171.9833 344° North 491 565  Level New Zealand
08:09PM -29.6667 171.9000 345° North 491 565  Level New Zealand
08:11PM -29.4167 171.8167 344° North 468 539  Level New Zealand
08:13PM -29.1667 171.7333 344° North 462 532  Level New Zealand
08:15PM -28.9167 171.6500 344° North 462 532  Level New Zealand
08:17PM -28.6667 171.5667 344° North 462 532  Level New Zealand
08:19PM -28.4167 171.4833 344° North 462 532  Level New Zealand
08:21PM -28.1833 171.4000 343° North 462 532  Level New Zealand
08:23PM -27.9333 171.3167 344° North 462 532  Level New Zealand
08:25PM -27.6833 171.2333 344° North 462 532  Level New Zealand
08:27PM -27.4333 171.1667 347° North 462 532  Level New Zealand
08:29PM -27.1833 171.0833 343° North 462 532  Level New Zealand
08:31PM -26.9333 171.0000 343° North 462 532  Level New Zealand
08:33PM -26.7000 170.9167 342° North 462 532  Level New Zealand
08:35PM -26.4500 170.8333 343° North 462 532  Level New Zealand
08:37PM -26.2000 170.7667 347° North 462 532  Level New Zealand
08:39PM -26.0271 170.7105 344° North  Level FlightAware Approximate
08:46PM -25.3610 170.4937 344° North  Level FlightAware Approximate
08:47PM -25.2658 170.4627 344° North  Level FlightAware Approximate
08:48PM -25.1707 170.4318 344° North  Level FlightAware Approximate
08:49PM -25.0756 170.4009 344° North  Level FlightAware Approximate
08:50PM -24.9804 170.3700 344° North  Level FlightAware Approximate
08:51PM -24.8853 170.3392 344° North  Level FlightAware Approximate
08:52PM -24.7901 170.3085 344° North  Level FlightAware Approximate
08:53PM -24.6950 170.2778 344° North  Level FlightAware Approximate
08:54PM -24.5998 170.2471 344° North  Level FlightAware Approximate
08:55PM -24.5046 170.2165 344° North  Level FlightAware Approximate
08:56PM -24.4094 170.1860 344° North  Level FlightAware Approximate
08:57PM -24.3143 170.1554 344° North  Level FlightAware Approximate
08:58PM -24.2191 170.1250 344° North  Level FlightAware Approximate
08:59PM -24.1239 170.0945 344° North  Level FlightAware Approximate
09:00PM -24.0287 170.0642 344° North  Level FlightAware Approximate
09:01PM -23.9335 170.0338 344° North  Level FlightAware Approximate
09:02PM -23.8382 170.0035 344° North  Level FlightAware Approximate
09:03PM -23.7430 169.9733 344° North  Level FlightAware Approximate
09:04PM -23.6478 169.9431 344° North  Level FlightAware Approximate
09:05PM -23.5525 169.9129 344° North  Level FlightAware Approximate
09:06PM -23.4573 169.8828 344° North  Level FlightAware Approximate
09:07PM -23.3621 169.8527 344° North  Level FlightAware Approximate
09:08PM -23.2668 169.8227 344° North  Level FlightAware Approximate
09:09PM -23.1716 169.7927 344° North  Level FlightAware Approximate
09:10PM -23.0763 169.7628 344° North  Level FlightAware Approximate
09:11PM -22.9810 169.7329 344° North  Level FlightAware Approximate
09:12PM -22.8857 169.7030 344° North  Level FlightAware Approximate
09:13PM -22.7905 169.6732 344° North  Level FlightAware Approximate
09:14PM -22.6952 169.6434 344° North  Level FlightAware Approximate
09:15PM -22.5999 169.6137 344° North  Level FlightAware Approximate
09:16PM -22.5046 169.5840 344° North  Level FlightAware Approximate
09:17PM -22.4093 169.5544 344° North  Level FlightAware Approximate
09:18PM -22.3140 169.5247 344° North  Level FlightAware Approximate
09:19PM -22.2187 169.4952 344° North  Level FlightAware Approximate
09:20PM -22.1234 169.4657 344° North  Level FlightAware Approximate
09:21PM -22.0280 169.4362 344° North  Level FlightAware Approximate
09:22PM -21.9327 169.4067 344° North  Level FlightAware Approximate
09:23PM -21.8374 169.3773 344° North  Level FlightAware Approximate
09:24PM -21.7420 169.3479 344° North  Level FlightAware Approximate
09:25PM -21.6467 169.3186 344° North  Level FlightAware Approximate
09:26PM -21.5513 169.2893 344° North  Level FlightAware Approximate
09:27PM -21.4560 169.2601 344° North  Level FlightAware Approximate
09:28PM -21.3606 169.2308 344° North  Level FlightAware Approximate
09:29PM -21.2653 169.2016 344° North  Level FlightAware Approximate
09:30PM -21.1699 169.1725 344° North  Level FlightAware Approximate
09:31PM -21.0745 169.1434 344° North  Level FlightAware Approximate
09:32PM -20.9792 169.1143 344° North  Level FlightAware Approximate
09:33PM -20.8838 169.0853 344° North  Level FlightAware Approximate
09:34PM -20.7884 169.0563 344° North  Level FlightAware Approximate
09:35PM -20.6930 169.0274 344° North  Level FlightAware Approximate
09:36PM -20.5976 168.9984 344° North  Level FlightAware Approximate
09:37PM -20.5022 168.9696 344° North  Level FlightAware Approximate
09:38PM -20.4068 168.9407 344° North  Level FlightAware Approximate
09:39PM -20.3114 168.9119 344° North  Level FlightAware Approximate
09:40PM -20.2160 168.8831 344° North  Level FlightAware Approximate
09:41PM -20.1205 168.8544 344° North  Level FlightAware Approximate
09:42PM -20.0251 168.8257 344° North  Level FlightAware Approximate
09:43PM -19.9297 168.7970 344° North  Level FlightAware Approximate
09:44PM -19.8342 168.7684 344° North  Level FlightAware Approximate
09:45PM -19.7388 168.7398 344° North  Level FlightAware Approximate
09:46PM -19.6434 168.7112 344° North  Level FlightAware Approximate
09:47PM -19.5479 168.6827 344° North  Level FlightAware Approximate
09:48PM -19.4524 168.6542 344° North  Level FlightAware Approximate
09:49PM -19.3570 168.6257 344° North  Level FlightAware Approximate
09:50PM -19.2605 168.6017 348° North  Level FlightAware Approximate
09:51PM -19.1635 168.5798 348° North  Level FlightAware Approximate
09:52PM -19.0665 168.5579 348° North  Level FlightAware Approximate
09:53PM -18.9695 168.5361 348° North  Level FlightAware Approximate
09:54PM -18.8725 168.5142 348° North  Level FlightAware Approximate
09:55PM -18.7756 168.4924 348° North  Level FlightAware Approximate
09:56PM -18.6786 168.4707 348° North  Level FlightAware Approximate
09:57PM -18.5816 168.4489 348° North  Level FlightAware Approximate
09:58PM -18.4846 168.4272 348° North  Level FlightAware Approximate
09:59PM -18.3876 168.4055 348° North  Level FlightAware Approximate
10:00PM -18.2906 168.3838 348° North  Level FlightAware Approximate
10:01PM -18.1936 168.3621 348° North  Level FlightAware Approximate
10:02PM -18.0965 168.3405 348° North  Level FlightAware Approximate
10:03PM -17.9995 168.3189 348° North  Level FlightAware Approximate
10:04PM -17.9025 168.2973 348° North  Level FlightAware Approximate
10:05PM -17.8055 168.2758 348° North  Level FlightAware Approximate
10:06PM -17.7085 168.2542 348° North  Level FlightAware Approximate
10:07PM -17.6621 168.2439 348° North  Level FlightAware Approximate
10:08PM -17.6993 168.3198 348° North  Level Estimated
10:09PM -17.6993 168.3198 348° North  Level Estimated
10:10PM -17.6993 168.3198 348° North  Level Estimated
10:11PM -17.6993 168.3198 348° North  Level Estimated
10:12PM -17.6993 168.3198 348° North  Level Estimated